createdAt,value
2017-12-24T00:00:38.082Z,9.81
2017-12-24T00:03:06.434Z,9.73
2017-12-24T00:05:34.768Z,9.73
2017-12-24T00:08:03.110Z,9.70
2017-12-24T00:10:31.432Z,9.71
2017-12-24T00:12:59.817Z,9.73
2017-12-24T00:15:28.141Z,9.76
2017-12-24T00:17:56.486Z,9.81
2017-12-24T00:20:24.815Z,9.74
2017-12-24T00:22:53.139Z,9.72
2017-12-24T00:25:21.486Z,9.78
2017-12-24T00:27:49.813Z,9.78
2017-12-24T00:30:18.158Z,9.83
2017-12-24T00:32:46.491Z,9.80
2017-12-24T00:35:14.860Z,9.79
2017-12-24T00:37:43.178Z,9.78
2017-12-24T00:40:11.527Z,9.84
2017-12-24T00:42:39.850Z,9.83
2017-12-24T00:45:08.194Z,9.84
2017-12-24T00:47:36.527Z,9.85
2017-12-24T00:50:04.871Z,9.85
2017-12-24T00:52:33.202Z,9.82
2017-12-24T00:55:01.545Z,9.80
2017-12-24T00:57:29.878Z,9.85
2017-12-24T00:59:58.233Z,9.89
2017-12-24T01:02:26.558Z,9.89
2017-12-24T01:04:54.911Z,9.87
2017-12-24T01:07:23.234Z,9.84
2017-12-24T01:09:51.590Z,9.81
2017-12-24T01:12:19.979Z,9.86
2017-12-24T01:14:48.326Z,9.92
2017-12-24T01:17:16.718Z,9.93
2017-12-24T01:19:45.067Z,9.91
2017-12-24T01:22:13.394Z,9.98
2017-12-24T01:24:41.750Z,9.93
2017-12-24T01:27:10.073Z,9.97
2017-12-24T01:29:38.426Z,9.97
2017-12-24T01:32:06.747Z,9.91
2017-12-24T01:34:35.099Z,9.90
2017-12-24T01:37:03.422Z,9.94
2017-12-24T01:39:31.765Z,9.93
2017-12-24T01:42:00.103Z,9.89
2017-12-24T01:44:28.445Z,9.91
2017-12-24T01:46:56.783Z,9.89
2017-12-24T01:49:25.126Z,9.95
2017-12-24T01:51:53.454Z,9.95
2017-12-24T01:54:21.812Z,9.86
2017-12-24T01:56:50.146Z,9.87
2017-12-24T01:59:18.511Z,9.89
2017-12-24T02:01:46.827Z,9.82
2017-12-24T02:04:15.178Z,9.82
2017-12-24T02:06:43.502Z,9.80
2017-12-24T02:09:11.855Z,9.83
2017-12-24T02:11:40.186Z,9.85
2017-12-24T02:14:08.554Z,9.80
2017-12-24T02:16:36.873Z,9.83
2017-12-24T02:19:05.226Z,9.84
2017-12-24T02:21:33.563Z,9.84
2017-12-24T02:24:01.894Z,9.85
2017-12-24T02:26:30.275Z,9.79
2017-12-24T02:28:58.606Z,9.83
2017-12-24T02:31:26.963Z,9.78
2017-12-24T02:33:55.290Z,9.76
2017-12-24T02:36:23.638Z,9.86
2017-12-24T02:38:51.966Z,9.84
2017-12-24T02:41:20.314Z,9.85
2017-12-24T02:43:48.685Z,9.81
2017-12-24T02:46:17.031Z,9.85
2017-12-24T02:48:45.359Z,9.79
2017-12-24T02:51:13.719Z,9.89
2017-12-24T02:53:42.050Z,9.84
2017-12-24T02:56:10.393Z,9.81
2017-12-24T02:58:38.726Z,9.86
2017-12-24T03:01:07.078Z,9.84
2017-12-24T03:03:35.401Z,9.84
2017-12-24T03:06:03.750Z,9.80
2017-12-24T03:08:32.130Z,9.87
2017-12-24T03:11:00.485Z,9.89
2017-12-24T03:13:28.813Z,9.90
2017-12-24T03:15:57.167Z,9.95
2017-12-24T03:18:25.502Z,9.91
2017-12-24T03:20:53.845Z,9.93
2017-12-24T03:23:22.174Z,9.95
2017-12-24T03:25:50.547Z,9.94
2017-12-24T03:28:18.877Z,9.94
2017-12-24T03:30:47.227Z,9.97
2017-12-24T03:33:15.561Z,9.90
2017-12-24T03:35:43.909Z,9.94
2017-12-24T03:38:12.238Z,9.96
2017-12-24T03:40:40.599Z,10.02
2017-12-24T03:43:08.935Z,10.04
2017-12-24T03:45:37.285Z,9.94
2017-12-24T03:48:05.617Z,9.97
2017-12-24T03:50:33.974Z,9.91
2017-12-24T03:53:02.306Z,9.97
2017-12-24T03:55:30.654Z,9.96
2017-12-24T03:57:59.114Z,9.99
2017-12-24T04:00:27.459Z,9.98
2017-12-24T04:02:55.823Z,9.99
2017-12-24T04:05:24.184Z,9.96
2017-12-24T04:07:52.509Z,9.93
2017-12-24T04:10:20.862Z,9.97
2017-12-24T04:12:49.194Z,9.83
2017-12-24T04:15:17.542Z,9.91
2017-12-24T04:17:45.870Z,9.94
2017-12-24T04:20:14.227Z,9.91
2017-12-24T04:22:42.558Z,9.90
2017-12-24T04:25:10.890Z,9.87
2017-12-24T04:27:39.246Z,9.94
2017-12-24T04:30:07.573Z,9.91
2017-12-24T04:32:35.939Z,9.94
2017-12-24T04:35:04.270Z,9.90
2017-12-24T04:37:32.617Z,9.96
2017-12-24T04:40:00.948Z,9.89
2017-12-24T04:42:29.302Z,9.91
2017-12-24T04:44:57.629Z,9.88
2017-12-24T04:47:25.978Z,9.87
2017-12-24T04:49:54.308Z,9.87
2017-12-24T04:52:22.654Z,9.93
2017-12-24T04:54:50.979Z,9.90
2017-12-24T04:57:19.326Z,9.91
2017-12-24T04:59:47.694Z,9.87
2017-12-24T05:02:16.045Z,9.94
2017-12-24T05:04:44.381Z,9.90
2017-12-24T05:07:12.734Z,9.89
2017-12-24T05:09:41.080Z,9.90
2017-12-24T05:12:09.437Z,9.98
2017-12-24T05:14:37.797Z,10.00
2017-12-24T05:17:06.150Z,9.97
2017-12-24T05:19:34.478Z,9.96
2017-12-24T05:22:02.843Z,9.96
2017-12-24T05:24:31.174Z,9.94
2017-12-24T05:26:59.526Z,9.94
2017-12-24T05:29:27.857Z,9.96
2017-12-24T05:31:56.211Z,9.92
2017-12-24T05:34:24.538Z,9.94
2017-12-24T05:36:52.885Z,9.96
2017-12-24T05:39:21.213Z,9.98
2017-12-24T05:41:49.563Z,9.93
2017-12-24T05:44:17.894Z,10.00
2017-12-24T05:46:46.247Z,9.98
2017-12-24T05:49:14.582Z,10.01
2017-12-24T05:51:42.945Z,10.04
2017-12-24T05:54:11.274Z,10.05
2017-12-24T05:56:39.635Z,10.03
2017-12-24T05:59:07.987Z,9.97
2017-12-24T06:01:36.333Z,10.02
2017-12-24T06:04:04.666Z,10.05
2017-12-24T06:06:33.017Z,10.03
2017-12-24T06:09:01.359Z,10.03
2017-12-24T06:11:29.751Z,10.07
2017-12-24T06:13:58.078Z,10.12
2017-12-24T06:16:26.434Z,10.06
2017-12-24T06:18:54.774Z,10.09
2017-12-24T06:21:23.139Z,10.05
2017-12-24T06:23:51.474Z,10.02
2017-12-24T06:26:19.805Z,10.07
2017-12-24T06:28:48.161Z,10.07
2017-12-24T06:31:16.618Z,10.09
2017-12-24T06:33:44.974Z,10.02
2017-12-24T06:36:13.306Z,10.02
2017-12-24T06:38:41.670Z,10.03
2017-12-24T06:41:10.004Z,10.04
2017-12-24T06:43:38.362Z,10.05
2017-12-24T06:46:06.696Z,10.06
2017-12-24T06:48:35.062Z,10.04
2017-12-24T06:51:03.403Z,10.04
2017-12-24T06:53:31.754Z,10.02
2017-12-24T06:56:00.082Z,9.94
2017-12-24T06:58:28.458Z,10.07
2017-12-24T07:00:56.793Z,10.02
2017-12-24T07:03:25.147Z,10.00
2017-12-24T07:05:53.485Z,10.05
2017-12-24T07:08:21.841Z,9.97
2017-12-24T07:10:50.169Z,10.00
2017-12-24T07:13:18.530Z,10.02
2017-12-24T07:15:46.864Z,9.97
2017-12-24T07:18:15.214Z,9.91
2017-12-24T07:20:43.552Z,9.91
2017-12-24T07:23:11.898Z,9.93
2017-12-24T07:25:40.225Z,9.94
2017-12-24T07:28:08.578Z,9.85
2017-12-24T07:30:36.905Z,9.88
2017-12-24T07:33:05.257Z,9.79
2017-12-24T07:35:33.589Z,9.87
2017-12-24T07:38:01.943Z,9.87
2017-12-24T07:40:30.263Z,9.85
2017-12-24T07:42:58.617Z,9.87
2017-12-24T07:45:26.942Z,9.81
2017-12-24T07:47:55.294Z,9.88
2017-12-24T07:50:23.622Z,9.85
2017-12-24T07:52:51.967Z,9.90
2017-12-24T07:55:20.295Z,9.90
2017-12-24T07:57:48.650Z,9.87
2017-12-24T08:00:16.982Z,9.90
2017-12-24T08:02:45.330Z,9.92
2017-12-24T08:05:13.654Z,9.93
2017-12-24T08:07:42.007Z,9.85
2017-12-24T08:10:10.344Z,9.90
2017-12-24T08:12:38.690Z,9.94
2017-12-24T08:15:07.099Z,9.89
2017-12-24T08:17:36.099Z,9.93
2017-12-24T08:20:04.426Z,9.88
2017-12-24T08:22:32.778Z,9.94
2017-12-24T08:25:01.108Z,9.94
2017-12-24T08:27:29.433Z,9.98
2017-12-24T08:29:57.793Z,9.93
2017-12-24T08:32:26.123Z,9.90
2017-12-24T08:34:54.470Z,9.93
2017-12-24T08:37:23.706Z,9.97
2017-12-24T08:39:52.057Z,9.94
2017-12-24T08:42:20.432Z,9.95
2017-12-24T08:44:48.737Z,10.00
2017-12-24T08:47:17.251Z,9.95
2017-12-24T08:49:45.665Z,9.95
2017-12-24T08:52:14.042Z,9.98
2017-12-24T08:54:42.923Z,10.04
2017-12-24T08:57:11.384Z,10.07
2017-12-24T08:59:39.742Z,10.07
2017-12-24T09:02:08.082Z,10.12
2017-12-24T09:04:36.500Z,10.11
2017-12-24T09:07:04.815Z,10.11
2017-12-24T09:09:33.180Z,10.05
2017-12-24T09:12:01.529Z,10.03
2017-12-24T09:14:30.006Z,10.07
2017-12-24T09:16:58.349Z,10.05
2017-12-24T09:19:26.796Z,10.11
2017-12-24T09:21:55.158Z,10.08
2017-12-24T09:24:23.493Z,10.06
2017-12-24T09:26:51.851Z,10.02
2017-12-24T09:29:20.216Z,10.12
2017-12-24T09:31:48.587Z,10.12
2017-12-24T09:34:18.542Z,10.12
2017-12-24T09:36:46.931Z,10.13
2017-12-24T09:39:15.269Z,10.16
2017-12-24T09:41:44.192Z,10.12
2017-12-24T09:44:12.534Z,10.10
2017-12-24T09:46:40.875Z,10.09
2017-12-24T09:49:09.269Z,10.12
2017-12-24T09:51:37.653Z,10.14
2017-12-24T09:54:07.013Z,10.09
2017-12-24T09:56:35.354Z,10.11
2017-12-24T09:59:03.711Z,10.13
2017-12-24T10:01:32.055Z,10.16
2017-12-24T10:04:00.411Z,10.13
2017-12-24T10:06:28.752Z,10.12
2017-12-24T10:08:57.115Z,10.14
2017-12-24T10:11:25.451Z,10.09
2017-12-24T10:13:54.745Z,10.09
2017-12-24T10:16:23.082Z,10.06
2017-12-24T10:18:51.514Z,10.08
2017-12-24T10:21:20.174Z,10.06
2017-12-24T10:23:48.711Z,10.08
2017-12-24T10:26:17.061Z,10.05
2017-12-24T10:28:45.916Z,10.03
2017-12-24T10:31:15.318Z,10.02
2017-12-24T10:33:43.776Z,10.01
2017-12-24T10:36:13.106Z,9.99
2017-12-24T10:38:41.440Z,9.96
2017-12-24T10:41:09.786Z,9.90
2017-12-24T10:43:38.118Z,9.89
2017-12-24T10:46:06.496Z,9.92
2017-12-24T10:48:34.833Z,9.92
2017-12-24T10:51:03.178Z,9.91
2017-12-24T10:53:31.506Z,9.91
2017-12-24T10:56:00.843Z,9.87
2017-12-24T10:58:29.178Z,9.92
2017-12-24T11:00:57.538Z,9.96
2017-12-24T11:03:25.882Z,9.91
2017-12-24T11:05:55.639Z,9.95
2017-12-24T11:08:24.415Z,9.86
2017-12-24T11:10:52.766Z,9.87
2017-12-24T11:13:21.928Z,9.95
2017-12-24T11:15:50.330Z,9.98
2017-12-24T11:18:18.677Z,9.96
2017-12-24T11:20:47.035Z,9.95
2017-12-24T11:23:15.370Z,10.02
2017-12-24T11:25:44.736Z,10.03
2017-12-24T11:28:13.064Z,10.02
2017-12-24T11:30:41.414Z,9.98
2017-12-24T11:33:09.747Z,10.07
2017-12-24T11:35:39.102Z,9.96
2017-12-24T11:38:07.538Z,10.02
2017-12-24T11:40:36.329Z,10.03
2017-12-24T11:43:04.822Z,10.10
2017-12-24T11:45:33.202Z,10.09
2017-12-24T11:48:01.534Z,10.15
2017-12-24T11:50:29.932Z,10.09
2017-12-24T11:52:58.251Z,10.13
2017-12-24T11:55:26.615Z,10.05
2017-12-24T11:57:55.478Z,10.09
2017-12-24T12:00:23.834Z,9.97
2017-12-24T12:02:52.545Z,10.05
2017-12-24T12:05:21.194Z,10.04
2017-12-24T12:07:49.526Z,10.00
2017-12-24T12:10:17.883Z,9.99
2017-12-24T12:12:46.207Z,9.92
2017-12-24T12:15:15.263Z,9.95
2017-12-24T12:17:43.595Z,9.84
2017-12-24T12:20:11.974Z,9.91
2017-12-24T12:22:40.311Z,9.93
2017-12-24T12:25:08.670Z,9.94
2017-12-24T12:27:36.998Z,9.87
2017-12-24T12:30:05.350Z,9.91
2017-12-24T12:32:33.675Z,9.82
2017-12-24T12:35:02.043Z,9.92
2017-12-24T12:37:30.734Z,9.87
2017-12-24T12:39:59.103Z,9.88
2017-12-24T12:42:27.434Z,9.86
2017-12-24T12:44:55.862Z,9.82
2017-12-24T12:47:24.215Z,9.82
2017-12-24T12:49:52.566Z,9.82
2017-12-24T12:52:20.946Z,9.87
2017-12-24T12:54:49.270Z,9.84
2017-12-24T12:57:17.663Z,9.74
2017-12-24T12:59:46.000Z,9.83
2017-12-24T13:02:14.375Z,9.70
2017-12-24T13:04:42.690Z,9.75
2017-12-24T13:07:11.050Z,9.70
2017-12-24T13:09:39.457Z,9.68
2017-12-24T13:12:07.803Z,9.64
2017-12-24T13:14:36.122Z,9.58
2017-12-24T13:17:04.490Z,9.54
2017-12-24T13:19:32.839Z,9.64
2017-12-24T13:22:01.186Z,9.54
2017-12-24T13:24:29.515Z,9.49
2017-12-24T13:26:57.882Z,9.53
2017-12-24T13:29:26.218Z,9.55
2017-12-24T13:31:54.557Z,9.53
2017-12-24T13:34:22.889Z,9.55
2017-12-24T13:36:51.230Z,9.52
2017-12-24T13:39:19.553Z,9.55
2017-12-24T13:41:47.898Z,9.47
2017-12-24T13:44:16.227Z,9.49
2017-12-24T13:46:44.578Z,9.45
2017-12-24T13:49:12.893Z,9.52
2017-12-24T13:51:42.070Z,9.46
2017-12-24T13:54:10.453Z,9.42
2017-12-24T13:56:38.734Z,9.53
2017-12-24T13:59:07.063Z,9.48
2017-12-24T14:01:35.410Z,9.47
2017-12-24T14:04:03.730Z,9.52
2017-12-24T14:06:32.072Z,9.52
2017-12-24T14:09:00.402Z,9.41
2017-12-24T14:11:28.887Z,9.46
2017-12-24T14:13:57.273Z,9.54
2017-12-24T14:16:25.610Z,9.47
2017-12-24T14:18:53.939Z,9.53
2017-12-24T14:21:22.287Z,9.46
2017-12-24T14:23:50.606Z,9.47
2017-12-24T14:26:18.955Z,9.52
2017-12-24T14:28:47.278Z,9.59
2017-12-24T14:31:16.523Z,9.63
2017-12-24T14:33:44.842Z,9.59
2017-12-24T14:36:14.111Z,9.62
2017-12-24T14:38:42.440Z,9.60
2017-12-24T14:41:10.782Z,9.61
2017-12-24T14:43:44.461Z,9.65
2017-12-24T14:46:13.937Z,9.72
2017-12-24T14:48:42.359Z,9.68
2017-12-24T14:51:10.771Z,9.70
2017-12-24T14:53:39.095Z,9.70
2017-12-24T14:56:07.426Z,9.75
2017-12-24T14:58:35.771Z,9.71
2017-12-24T15:01:04.102Z,9.74
2017-12-24T15:03:32.450Z,9.75
2017-12-24T15:06:00.779Z,9.78
2017-12-24T15:08:29.131Z,9.72
2017-12-24T15:10:57.454Z,9.71
2017-12-24T15:13:25.810Z,9.78
2017-12-24T15:15:54.126Z,9.75
2017-12-24T15:18:22.476Z,9.70
2017-12-24T15:20:50.806Z,9.74
2017-12-24T15:23:19.146Z,9.76
2017-12-24T15:25:48.391Z,9.81
2017-12-24T15:28:16.742Z,9.80
2017-12-24T15:30:45.070Z,9.80
2017-12-24T15:33:13.434Z,9.81
2017-12-24T15:35:42.730Z,9.79
2017-12-24T15:38:11.086Z,9.76
2017-12-24T15:40:39.430Z,9.83
2017-12-24T15:43:07.781Z,9.83
2017-12-24T15:45:36.126Z,9.84
2017-12-24T15:48:04.483Z,9.86
2017-12-24T15:50:32.822Z,9.88
2017-12-24T15:53:01.171Z,9.89
2017-12-24T15:55:29.510Z,9.91
2017-12-24T15:57:57.861Z,9.87
2017-12-24T16:00:26.181Z,9.87
2017-12-24T16:02:54.538Z,9.86
2017-12-24T16:05:22.863Z,9.87
2017-12-24T16:07:51.210Z,9.91
2017-12-24T16:10:19.542Z,9.92
2017-12-24T16:12:47.898Z,9.89
2017-12-24T16:15:17.433Z,9.95
2017-12-24T16:17:45.791Z,9.92
2017-12-24T16:20:14.109Z,9.88
2017-12-24T16:22:42.466Z,9.91
2017-12-24T16:25:10.786Z,9.93
2017-12-24T16:27:39.134Z,9.93
2017-12-24T16:30:07.467Z,9.90
2017-12-24T16:32:35.815Z,9.98
2017-12-24T16:35:04.175Z,10.03
2017-12-24T16:37:32.537Z,10.02
2017-12-24T16:40:00.869Z,10.01
2017-12-24T16:42:29.242Z,9.98
2017-12-24T16:44:57.638Z,10.03
2017-12-24T16:47:25.978Z,10.06
2017-12-24T16:49:54.319Z,10.08
2017-12-24T16:52:22.675Z,10.11
2017-12-24T16:54:51.008Z,10.11
2017-12-24T16:57:19.362Z,10.08
2017-12-24T16:59:47.729Z,10.03
2017-12-24T17:02:16.054Z,10.04
2017-12-24T17:04:44.421Z,10.01
2017-12-24T17:07:12.745Z,10.00
2017-12-24T17:09:41.136Z,10.04
2017-12-24T17:12:09.474Z,10.00
2017-12-24T17:14:37.827Z,10.04
2017-12-24T17:17:06.171Z,10.02
2017-12-24T17:19:34.538Z,10.07
2017-12-24T17:22:03.371Z,10.09
2017-12-24T17:24:31.727Z,10.04
2017-12-24T17:27:00.066Z,10.02
2017-12-24T17:29:28.425Z,10.09
2017-12-24T17:31:56.762Z,10.05
2017-12-24T17:34:25.119Z,10.02
2017-12-24T17:36:53.454Z,10.08
2017-12-24T17:39:21.806Z,10.09
2017-12-24T17:41:50.146Z,10.13
2017-12-24T17:44:18.498Z,10.14
2017-12-24T17:46:46.868Z,10.22
2017-12-24T17:49:15.229Z,10.10
2017-12-24T17:51:43.564Z,10.13
2017-12-24T17:54:11.918Z,10.08
2017-12-24T17:56:40.263Z,10.07
2017-12-24T17:59:08.614Z,10.05
2017-12-24T18:01:36.955Z,10.01
2017-12-24T18:04:05.305Z,10.05
2017-12-24T18:06:33.641Z,10.02
2017-12-24T18:09:02.002Z,9.99
2017-12-24T18:11:30.857Z,10.03
2017-12-24T18:13:59.218Z,10.07
2017-12-24T18:16:27.554Z,10.02
2017-12-24T18:18:55.973Z,10.00
2017-12-24T18:21:24.254Z,10.05
2017-12-24T18:23:52.607Z,10.03
2017-12-24T18:26:20.942Z,10.02
2017-12-24T18:28:49.294Z,10.08
2017-12-24T18:31:18.489Z,10.06
2017-12-24T18:33:46.841Z,10.11
2017-12-24T18:36:15.182Z,10.15
2017-12-24T18:38:43.538Z,10.07
2017-12-24T18:41:11.886Z,10.03
2017-12-24T18:43:40.242Z,10.03
2017-12-24T18:46:08.579Z,10.04
2017-12-24T18:48:36.930Z,10.13
2017-12-24T18:51:06.135Z,10.04
2017-12-24T18:53:34.487Z,9.97
2017-12-24T18:56:02.818Z,10.01
2017-12-24T18:58:31.194Z,10.00
2017-12-24T19:00:59.595Z,10.03
2017-12-24T19:03:27.930Z,10.03
2017-12-24T19:05:57.170Z,9.96
2017-12-24T19:08:25.499Z,9.92
2017-12-24T19:10:54.615Z,9.93
2017-12-24T19:13:22.966Z,9.97
2017-12-24T19:15:51.750Z,10.02
2017-12-24T19:18:20.091Z,9.99
2017-12-24T19:20:48.516Z,10.05
2017-12-24T19:23:16.841Z,9.95
2017-12-24T19:25:46.114Z,10.03
2017-12-24T19:28:14.451Z,10.06
2017-12-24T19:30:43.642Z,10.09
2017-12-24T19:33:11.977Z,10.07
2017-12-24T19:35:41.233Z,10.03
2017-12-24T19:38:09.570Z,10.12
2017-12-24T19:40:37.922Z,10.09
2017-12-24T19:43:06.275Z,10.09
2017-12-24T19:45:35.582Z,10.07
2017-12-24T19:48:03.914Z,10.07
2017-12-24T19:50:32.271Z,10.11
2017-12-24T19:53:00.606Z,10.11
2017-12-24T19:55:29.920Z,10.09
2017-12-24T19:57:58.260Z,10.12
2017-12-24T20:00:26.617Z,10.08
2017-12-24T20:02:54.945Z,10.11
2017-12-24T20:05:23.298Z,10.11
2017-12-24T20:07:51.632Z,10.11
2017-12-24T20:10:19.982Z,10.19
2017-12-24T20:12:48.328Z,10.11
2017-12-24T20:15:17.646Z,10.15
2017-12-24T20:17:45.991Z,10.10
2017-12-24T20:20:14.347Z,10.10
2017-12-24T20:22:42.699Z,10.10
2017-12-24T20:25:11.059Z,10.10
2017-12-24T20:27:39.394Z,10.08
2017-12-24T20:30:07.774Z,10.07
2017-12-24T20:32:36.092Z,10.07
2017-12-24T20:35:04.443Z,10.07
2017-12-24T20:37:32.793Z,10.07
2017-12-24T20:40:01.199Z,10.12
2017-12-24T20:42:29.486Z,10.12
2017-12-24T20:44:57.846Z,10.13
2017-12-24T20:47:26.188Z,10.16
2017-12-24T20:49:54.543Z,10.15
2017-12-24T20:52:22.877Z,10.12
2017-12-24T20:54:51.230Z,10.10
2017-12-24T20:57:19.626Z,10.10
2017-12-24T20:59:47.918Z,10.07
2017-12-24T21:02:16.250Z,10.07
2017-12-24T21:04:44.610Z,10.04
2017-12-24T21:07:12.938Z,9.98
2017-12-24T21:09:41.270Z,10.06
2017-12-24T21:12:09.635Z,10.00
2017-12-24T21:14:37.970Z,10.03
2017-12-24T21:17:06.330Z,10.01
2017-12-24T21:19:34.662Z,9.97
2017-12-24T21:22:03.010Z,9.95
2017-12-24T21:24:31.343Z,9.93
2017-12-24T21:26:59.696Z,9.97
2017-12-24T21:29:28.025Z,9.96
2017-12-24T21:31:56.486Z,9.88
2017-12-24T21:34:24.794Z,9.92
2017-12-24T21:36:53.147Z,9.93
2017-12-24T21:39:21.474Z,9.90
2017-12-24T21:41:49.826Z,9.91
2017-12-24T21:44:18.146Z,9.88
2017-12-24T21:46:46.950Z,9.79
2017-12-24T21:49:15.274Z,9.83
2017-12-24T21:51:43.613Z,9.75
2017-12-24T21:54:11.934Z,9.75
2017-12-24T21:56:40.282Z,9.77
2017-12-24T21:59:08.602Z,9.75
2017-12-24T22:01:36.949Z,9.76
2017-12-24T22:04:05.280Z,9.76
2017-12-24T22:06:33.761Z,9.81
2017-12-24T22:09:02.082Z,9.68
2017-12-24T22:11:30.434Z,9.72
2017-12-24T22:13:58.761Z,9.69
2017-12-24T22:16:27.112Z,9.79
2017-12-24T22:18:55.432Z,9.71
2017-12-24T22:21:23.774Z,9.75
2017-12-24T22:23:52.102Z,9.72
2017-12-24T22:26:21.402Z,9.72
2017-12-24T22:28:49.726Z,9.79
2017-12-24T22:31:18.074Z,9.79
2017-12-24T22:33:46.397Z,9.74
2017-12-24T22:36:14.742Z,9.79
2017-12-24T22:38:43.074Z,9.72
2017-12-24T22:41:11.435Z,9.71
2017-12-24T22:43:39.753Z,9.76
2017-12-24T22:46:08.106Z,9.72
2017-12-24T22:48:36.429Z,9.72
2017-12-24T22:51:04.770Z,9.70
2017-12-24T22:53:33.106Z,9.71
2017-12-24T22:56:01.605Z,9.61
2017-12-24T22:58:29.935Z,9.71
2017-12-24T23:00:58.305Z,9.63
2017-12-24T23:03:26.825Z,9.71
2017-12-24T23:05:56.074Z,9.70
2017-12-24T23:08:24.408Z,9.63
2017-12-24T23:10:52.749Z,9.58
2017-12-24T23:13:21.128Z,9.60
2017-12-24T23:15:49.638Z,9.65
2017-12-24T23:18:17.977Z,9.55
2017-12-24T23:20:46.302Z,9.60
2017-12-24T23:23:14.676Z,9.55
2017-12-24T23:25:43.347Z,9.48
2017-12-24T23:28:11.698Z,9.54
2017-12-24T23:30:40.018Z,9.51
2017-12-24T23:33:08.357Z,9.52
2017-12-24T23:35:36.677Z,9.52
2017-12-24T23:38:05.018Z,9.52
2017-12-24T23:40:34.081Z,9.43
2017-12-24T23:43:02.422Z,9.40
2017-12-24T23:45:31.003Z,9.38
2017-12-24T23:47:59.357Z,9.43
2017-12-24T23:50:27.797Z,9.41
2017-12-24T23:52:56.157Z,9.36
2017-12-24T23:55:24.517Z,9.37
2017-12-24T23:57:52.861Z,9.38
